createdAt,value
2018-10-02T00:03:33.632Z,21.50
2018-10-02T00:08:37.060Z,21.52
2018-10-02T00:14:43.531Z,21.49
2018-10-02T00:19:46.945Z,21.44
2018-10-02T00:24:50.380Z,21.41
2018-10-02T00:29:53.807Z,21.36
2018-10-02T00:34:57.272Z,21.31
2018-10-02T00:40:00.756Z,21.28
2018-10-02T00:45:04.336Z,21.26
2018-10-02T00:50:07.740Z,21.20
2018-10-02T00:55:11.207Z,21.15
2018-10-02T01:00:14.676Z,21.10
2018-10-02T01:05:18.116Z,21.07
2018-10-02T01:10:21.575Z,21.05
2018-10-02T01:15:25.027Z,21.02
2018-10-02T01:20:28.464Z,21.00
2018-10-02T01:25:31.912Z,20.97
2018-10-02T01:30:35.347Z,20.96
2018-10-02T01:35:38.801Z,20.96
2018-10-02T01:40:42.256Z,20.93
2018-10-02T01:45:45.774Z,20.92
2018-10-02T01:50:49.216Z,20.89
2018-10-02T01:55:52.644Z,20.88
2018-10-02T02:00:56.085Z,20.85
2018-10-02T02:05:59.527Z,20.85
2018-10-02T02:11:02.960Z,20.83
2018-10-02T02:16:06.431Z,20.82
2018-10-02T02:21:09.866Z,20.82
2018-10-02T02:26:13.317Z,20.79
2018-10-02T02:31:16.764Z,20.79
2018-10-02T02:36:20.215Z,20.76
2018-10-02T02:41:23.668Z,20.76
2018-10-02T02:46:27.148Z,20.74
2018-10-02T02:51:32.819Z,20.71
2018-10-02T02:56:36.245Z,20.69
2018-10-02T03:01:39.694Z,20.69
2018-10-02T03:06:43.116Z,20.69
2018-10-02T03:11:46.560Z,20.67
2018-10-02T03:16:49.979Z,20.67
2018-10-02T03:21:53.477Z,20.64
2018-10-02T03:26:56.844Z,20.64
2018-10-02T03:32:00.265Z,20.63
2018-10-02T03:37:03.685Z,20.60
2018-10-02T03:42:07.107Z,20.60
2018-10-02T03:47:10.533Z,20.57
2018-10-02T03:52:13.960Z,20.60
2018-10-02T03:57:17.508Z,20.61
2018-10-02T04:02:20.948Z,20.56
2018-10-02T04:07:24.402Z,20.54
2018-10-02T04:12:27.833Z,20.52
2018-10-02T04:17:31.297Z,20.51
2018-10-02T04:22:34.752Z,20.49
2018-10-02T04:27:38.565Z,20.48
2018-10-02T04:32:42.080Z,20.46
2018-10-02T04:37:45.512Z,20.44
2018-10-02T04:42:48.916Z,20.43
2018-10-02T04:47:54.144Z,20.41
2018-10-02T04:52:57.571Z,20.39
2018-10-02T04:58:01.011Z,20.38
2018-10-02T05:03:04.444Z,20.34
2018-10-02T05:08:07.868Z,20.33
2018-10-02T05:13:11.327Z,20.32
2018-10-02T05:18:14.737Z,20.30
2018-10-02T05:23:18.155Z,20.29
2018-10-02T05:28:21.612Z,20.27
2018-10-02T05:33:25.075Z,20.27
2018-10-02T05:38:28.508Z,20.25
2018-10-02T05:43:31.940Z,20.24
2018-10-02T05:48:35.393Z,20.25
2018-10-02T05:53:38.859Z,20.21
2018-10-02T05:58:42.339Z,20.22
2018-10-02T06:03:45.774Z,20.23
2018-10-02T06:08:49.208Z,20.23
2018-10-02T06:13:52.689Z,20.22
2018-10-02T06:18:56.122Z,20.23
2018-10-02T06:23:59.560Z,20.23
2018-10-02T06:29:02.989Z,20.23
2018-10-02T06:34:06.429Z,20.24
2018-10-02T06:39:09.912Z,20.24
2018-10-02T06:44:13.343Z,20.24
2018-10-02T06:49:16.811Z,20.21
2018-10-02T06:54:20.247Z,13.04
2018-10-02T06:59:23.673Z,12.11
2018-10-02T07:04:27.101Z,11.85
2018-10-02T07:09:30.512Z,11.70
2018-10-02T07:14:33.981Z,11.28
2018-10-02T07:19:37.437Z,13.78
2018-10-02T07:24:40.853Z,16.03
2018-10-02T07:29:44.272Z,16.88
2018-10-02T07:34:47.717Z,17.36
2018-10-02T07:39:51.158Z,17.67
2018-10-02T07:44:54.621Z,17.94
2018-10-02T07:49:58.027Z,18.13
2018-10-02T07:55:01.486Z,18.31
2018-10-02T08:00:05.694Z,18.47
2018-10-02T08:05:09.092Z,18.59
2018-10-02T08:10:12.531Z,18.69
2018-10-02T08:15:15.953Z,18.79
2018-10-02T08:20:19.386Z,18.86
2018-10-02T08:25:22.842Z,18.94
2018-10-02T08:30:26.417Z,19.02
2018-10-02T08:35:29.783Z,19.06
2018-10-02T08:40:33.212Z,19.19
2018-10-02T08:45:36.664Z,19.25
2018-10-02T08:50:40.169Z,19.32
2018-10-02T08:55:43.550Z,19.50
2018-10-02T09:00:47.029Z,19.72
2018-10-02T09:05:50.458Z,19.83
2018-10-02T09:10:53.889Z,19.95
2018-10-02T09:15:57.478Z,20.05
2018-10-02T09:21:00.755Z,20.10
2018-10-02T09:26:04.185Z,20.16
2018-10-02T09:31:13.076Z,20.18
2018-10-02T09:36:21.705Z,20.15
2018-10-02T09:41:30.445Z,20.11
2018-10-02T09:46:33.880Z,20.09
2018-10-02T09:51:37.360Z,20.09
2018-10-02T09:56:41.827Z,20.10
2018-10-02T10:01:50.269Z,20.10
2018-10-02T10:06:53.699Z,20.07
2018-10-02T10:11:57.125Z,20.04
2018-10-02T10:17:00.655Z,20.01
2018-10-02T10:22:04.005Z,19.97
2018-10-02T10:27:07.556Z,19.96
2018-10-02T10:32:11.328Z,19.92
2018-10-02T10:37:14.769Z,19.91
2018-10-02T10:42:18.209Z,19.90
2018-10-02T10:47:21.694Z,19.89
2018-10-02T10:52:25.180Z,19.94
2018-10-02T10:57:28.589Z,19.89
2018-10-02T11:02:32.014Z,19.87
2018-10-02T11:07:35.440Z,19.87
2018-10-02T11:12:38.974Z,19.91
2018-10-02T11:17:42.524Z,19.90
2018-10-02T11:22:45.929Z,19.92
2018-10-02T11:27:49.340Z,19.90
2018-10-02T11:32:52.818Z,19.93
2018-10-02T11:37:56.238Z,19.86
2018-10-02T11:42:59.682Z,19.84
2018-10-02T11:48:03.126Z,19.91
2018-10-02T11:53:06.839Z,19.88
2018-10-02T11:58:10.318Z,19.88
2018-10-02T12:03:13.877Z,19.89
2018-10-02T12:08:17.295Z,19.88
2018-10-02T12:13:20.830Z,19.90
2018-10-02T12:18:24.216Z,19.96
2018-10-02T12:23:27.664Z,19.94
2018-10-02T12:28:31.079Z,19.94
2018-10-02T12:33:34.495Z,19.95
2018-10-02T12:38:37.958Z,19.96
2018-10-02T12:43:41.341Z,19.94
2018-10-02T12:48:44.769Z,19.96
2018-10-02T12:53:48.201Z,19.95
2018-10-02T12:58:51.665Z,17.31
2018-10-02T13:03:55.133Z,19.04
2018-10-02T13:08:58.576Z,19.63
2018-10-02T13:14:01.999Z,19.74
2018-10-02T13:19:05.428Z,19.83
2018-10-02T13:24:08.881Z,19.93
2018-10-02T13:29:12.355Z,19.96
2018-10-02T13:34:15.845Z,19.98
2018-10-02T13:39:19.255Z,19.93
2018-10-02T13:44:22.685Z,19.90
2018-10-02T13:49:26.122Z,19.89
2018-10-02T13:54:29.581Z,19.90
2018-10-02T13:59:33.324Z,19.92
2018-10-02T14:04:36.728Z,19.91
2018-10-02T14:09:40.253Z,19.90
2018-10-02T14:14:43.845Z,19.90
2018-10-02T14:19:47.250Z,19.89
2018-10-02T14:35:55.632Z,19.87
2018-10-02T14:40:59.057Z,19.91
2018-10-02T14:46:02.601Z,19.92
2018-10-02T14:51:06.582Z,19.94
2018-10-02T14:56:10.278Z,19.98
2018-10-02T15:01:13.733Z,20.03
2018-10-02T15:06:17.294Z,20.08
2018-10-02T15:11:21.670Z,20.14
2018-10-02T15:16:25.332Z,20.19
2018-10-02T15:21:28.920Z,20.25
2018-10-02T15:26:32.405Z,20.31
2018-10-02T15:31:36.139Z,20.34
2018-10-02T15:36:39.577Z,20.41
2018-10-02T15:41:43.425Z,20.44
2018-10-02T15:46:46.925Z,20.49
2018-10-02T15:51:50.348Z,20.52
2018-10-02T15:56:53.964Z,20.56
2018-10-02T16:01:57.469Z,20.61
2018-10-02T16:07:01.081Z,20.71
2018-10-02T16:12:04.601Z,20.75
2018-10-02T16:17:08.038Z,20.76
2018-10-02T16:22:11.508Z,20.79
2018-10-02T16:27:15.073Z,20.82
2018-10-02T16:32:18.489Z,20.86
2018-10-02T16:37:22.006Z,20.91
2018-10-02T16:42:25.502Z,20.93
2018-10-02T16:47:28.965Z,20.95
2018-10-02T16:52:32.432Z,20.96
2018-10-02T16:57:35.894Z,21.00
2018-10-02T17:02:39.325Z,21.02
2018-10-02T17:07:42.773Z,21.04
2018-10-02T17:12:46.223Z,21.02
2018-10-02T17:17:49.811Z,21.07
2018-10-02T17:22:54.007Z,21.08
2018-10-02T17:27:57.945Z,21.06
2018-10-02T17:33:03.828Z,21.12
2018-10-02T17:38:08.075Z,21.58
2018-10-02T17:43:11.618Z,21.75
2018-10-02T17:48:15.148Z,21.78
2018-10-02T17:53:18.813Z,21.77
2018-10-02T17:58:22.337Z,21.74
2018-10-02T18:03:26.551Z,21.71
2018-10-02T18:08:30.217Z,21.69
2018-10-02T18:13:34.011Z,21.66
2018-10-02T18:18:37.589Z,21.64
2018-10-02T18:23:41.228Z,21.62
2018-10-02T18:28:44.699Z,21.59
2018-10-02T18:33:49.213Z,21.57
2018-10-02T18:38:52.707Z,21.57
2018-10-02T18:43:56.185Z,21.56
2018-10-02T18:48:59.767Z,21.56
2018-10-02T18:54:03.190Z,21.53
2018-10-02T18:59:06.732Z,21.55
2018-10-02T19:04:10.326Z,21.55
2018-10-02T19:09:17.330Z,21.55
2018-10-02T19:14:21.393Z,21.54
2018-10-02T19:19:31.708Z,21.52
2018-10-02T19:24:35.360Z,21.51
2018-10-02T19:29:38.912Z,21.49
2018-10-02T19:34:43.667Z,21.50
2018-10-02T19:39:47.205Z,21.49
2018-10-02T19:44:50.707Z,21.46
2018-10-02T19:49:54.348Z,21.46
2018-10-02T19:54:57.895Z,21.48
2018-10-02T20:00:01.465Z,21.46
2018-10-02T20:05:06.075Z,21.45
2018-10-02T20:10:09.604Z,21.45
2018-10-02T20:15:13.072Z,21.46
2018-10-02T20:20:16.630Z,21.46
2018-10-02T20:25:20.427Z,21.44
2018-10-02T20:30:26.162Z,21.42
2018-10-02T20:35:29.981Z,21.43
2018-10-02T20:40:33.517Z,21.45
2018-10-02T20:45:36.944Z,21.46
2018-10-02T20:50:40.499Z,21.48
2018-10-02T20:55:44.185Z,21.48
2018-10-02T21:00:47.912Z,21.49
2018-10-02T21:05:51.342Z,21.49
2018-10-02T21:10:55.147Z,21.48
2018-10-02T21:15:58.565Z,21.48
2018-10-02T21:21:01.972Z,21.46
2018-10-02T21:26:05.381Z,21.49
2018-10-02T21:31:09.114Z,21.49
2018-10-02T21:36:13.450Z,21.50
2018-10-02T21:41:16.965Z,21.51
2018-10-02T21:46:20.376Z,21.51
2018-10-02T21:51:23.874Z,21.50
2018-10-02T21:56:27.423Z,21.52
2018-10-02T22:01:31.198Z,21.51
2018-10-02T22:06:34.720Z,21.52
2018-10-02T22:11:38.194Z,21.53
2018-10-02T22:16:41.644Z,21.54
2018-10-02T22:21:45.073Z,21.54
2018-10-02T22:26:48.550Z,21.53
2018-10-02T22:31:52.012Z,21.55
2018-10-02T22:36:55.464Z,21.55
2018-10-02T22:41:58.910Z,21.54
2018-10-02T22:47:02.485Z,21.54
2018-10-02T22:52:06.071Z,21.55
2018-10-02T22:57:09.566Z,21.55
2018-10-02T23:02:13.044Z,21.55
2018-10-02T23:07:16.446Z,21.54
2018-10-02T23:12:19.856Z,21.54
2018-10-02T23:17:23.264Z,21.54
2018-10-02T23:22:26.693Z,21.54
2018-10-02T23:27:30.098Z,21.53
2018-10-02T23:32:33.524Z,21.54
2018-10-02T23:37:36.956Z,21.55
2018-10-02T23:42:40.377Z,21.55
2018-10-02T23:47:43.832Z,21.54
2018-10-02T23:52:47.232Z,21.54
2018-10-02T23:57:50.632Z,21.54
